sensor_id;sensor_type;location;lat;lon;timestamp;temperature;humidity
12839;DHT22;6486;51.034;5.262;2022-10-31T00:01:31;15.80;76.30
12839;DHT22;6486;51.034;5.262;2022-10-31T00:03:57;15.80;76.30
12839;DHT22;6486;51.034;5.262;2022-10-31T00:06:23;15.80;76.40
12839;DHT22;6486;51.034;5.262;2022-10-31T00:08:53;15.70;76.40
12839;DHT22;6486;51.034;5.262;2022-10-31T00:11:20;15.80;77.10
12839;DHT22;6486;51.034;5.262;2022-10-31T00:13:46;15.80;76.50
12839;DHT22;6486;51.034;5.262;2022-10-31T00:16:23;15.80;76.60
12839;DHT22;6486;51.034;5.262;2022-10-31T00:18:53;15.80;76.60
12839;DHT22;6486;51.034;5.262;2022-10-31T00:21:20;15.70;76.50
12839;DHT22;6486;51.034;5.262;2022-10-31T00:23:46;15.80;76.60
12839;DHT22;6486;51.034;5.262;2022-10-31T00:26:13;15.70;76.50
12839;DHT22;6486;51.034;5.262;2022-10-31T00:28:38;15.80;77.00
12839;DHT22;6486;51.034;5.262;2022-10-31T00:31:06;15.70;76.60
12839;DHT22;6486;51.034;5.262;2022-10-31T00:33:34;15.70;76.60
12839;DHT22;6486;51.034;5.262;2022-10-31T00:36:00;15.70;76.80
12839;DHT22;6486;51.034;5.262;2022-10-31T00:38:25;15.70;76.80
12839;DHT22;6486;51.034;5.262;2022-10-31T00:40:51;15.70;76.90
12839;DHT22;6486;51.034;5.262;2022-10-31T00:43:17;15.60;76.90
12839;DHT22;6486;51.034;5.262;2022-10-31T00:45:43;15.60;76.90
12839;DHT22;6486;51.034;5.262;2022-10-31T00:48:09;15.60;76.80
12839;DHT22;6486;51.034;5.262;2022-10-31T00:50:35;15.60;76.90
12839;DHT22;6486;51.034;5.262;2022-10-31T00:53:00;15.60;76.90
12839;DHT22;6486;51.034;5.262;2022-10-31T00:55:26;15.60;76.90
12839;DHT22;6486;51.034;5.262;2022-10-31T00:57:51;15.60;77.00
12839;DHT22;6486;51.034;5.262;2022-10-31T01:00:17;15.60;77.00
12839;DHT22;6486;51.034;5.262;2022-10-31T01:02:43;15.60;77.00
12839;DHT22;6486;51.034;5.262;2022-10-31T01:05:08;15.60;77.00
12839;DHT22;6486;51.034;5.262;2022-10-31T01:07:38;15.60;76.90
12839;DHT22;6486;51.034;5.262;2022-10-31T01:10:05;15.60;77.00
12839;DHT22;6486;51.034;5.262;2022-10-31T01:12:42;15.60;77.00
12839;DHT22;6486;51.034;5.262;2022-10-31T01:15:09;15.50;77.00
12839;DHT22;6486;51.034;5.262;2022-10-31T01:17:35;15.50;77.00
12839;DHT22;6486;51.034;5.262;2022-10-31T01:20:01;15.50;77.00
12839;DHT22;6486;51.034;5.262;2022-10-31T01:22:27;15.50;77.10
12839;DHT22;6486;51.034;5.262;2022-10-31T01:24:52;15.50;77.10
12839;DHT22;6486;51.034;5.262;2022-10-31T01:27:18;15.40;77.10
12839;DHT22;6486;51.034;5.262;2022-10-31T01:29:43;15.40;77.10
12839;DHT22;6486;51.034;5.262;2022-10-31T01:32:09;15.40;77.10
12839;DHT22;6486;51.034;5.262;2022-10-31T01:34:35;15.40;77.10
12839;DHT22;6486;51.034;5.262;2022-10-31T01:37:00;15.40;77.20
12839;DHT22;6486;51.034;5.262;2022-10-31T01:39:26;15.30;77.10
12839;DHT22;6486;51.034;5.262;2022-10-31T01:41:53;15.30;77.10
12839;DHT22;6486;51.034;5.262;2022-10-31T01:46:57;15.20;77.20
12839;DHT22;6486;51.034;5.262;2022-10-31T01:54:39;15.20;77.30
12839;DHT22;6486;51.034;5.262;2022-10-31T01:57:08;15.10;77.30
12839;DHT22;6486;51.034;5.262;2022-10-31T01:59:38;15.20;77.50
12839;DHT22;6486;51.034;5.262;2022-10-31T02:02:05;15.10;77.30
12839;DHT22;6486;51.034;5.262;2022-10-31T02:04:31;15.10;77.50
12839;DHT22;6486;51.034;5.262;2022-10-31T02:07:13;15.10;77.50
12839;DHT22;6486;51.034;5.262;2022-10-31T02:09:40;15.10;77.50
12839;DHT22;6486;51.034;5.262;2022-10-31T02:12:06;15.10;77.40
12839;DHT22;6486;51.034;5.262;2022-10-31T02:14:35;15.10;77.50
12839;DHT22;6486;51.034;5.262;2022-10-31T02:17:01;15.10;77.50
12839;DHT22;6486;51.034;5.262;2022-10-31T02:20:11;15.10;77.50
12839;DHT22;6486;51.034;5.262;2022-10-31T02:22:48;15.00;77.40
12839;DHT22;6486;51.034;5.262;2022-10-31T02:31:20;14.90;77.40
12839;DHT22;6486;51.034;5.262;2022-10-31T02:34:01;14.90;77.50
12839;DHT22;6486;51.034;5.262;2022-10-31T02:37:01;14.90;77.60
12839;DHT22;6486;51.034;5.262;2022-10-31T02:39:36;14.90;77.70
12839;DHT22;6486;51.034;5.262;2022-10-31T02:47:36;14.90;77.80
12839;DHT22;6486;51.034;5.262;2022-10-31T02:50:14;14.90;77.80
12839;DHT22;6486;51.034;5.262;2022-10-31T02:52:40;14.90;77.80
12839;DHT22;6486;51.034;5.262;2022-10-31T02:58:05;14.90;77.90
12839;DHT22;6486;51.034;5.262;2022-10-31T03:09:00;14.90;77.90
12839;DHT22;6486;51.034;5.262;2022-10-31T03:11:32;14.80;77.70
12839;DHT22;6486;51.034;5.262;2022-10-31T03:14:20;14.80;77.70
12839;DHT22;6486;51.034;5.262;2022-10-31T03:16:50;14.80;77.70
12839;DHT22;6486;51.034;5.262;2022-10-31T03:19:38;14.80;77.60
12839;DHT22;6486;51.034;5.262;2022-10-31T03:22:10;14.80;77.60
12839;DHT22;6486;51.034;5.262;2022-10-31T03:24:39;14.70;77.60
12839;DHT22;6486;51.034;5.262;2022-10-31T03:27:09;14.70;77.70
12839;DHT22;6486;51.034;5.262;2022-10-31T03:29:36;14.70;77.80
12839;DHT22;6486;51.034;5.262;2022-10-31T03:32:09;14.70;77.80
12839;DHT22;6486;51.034;5.262;2022-10-31T03:34:38;14.60;77.80
12839;DHT22;6486;51.034;5.262;2022-10-31T03:37:07;14.60;77.80
12839;DHT22;6486;51.034;5.262;2022-10-31T03:39:34;14.60;78.40
12839;DHT22;6486;51.034;5.262;2022-10-31T03:44:31;14.60;77.80
12839;DHT22;6486;51.034;5.262;2022-10-31T03:46:58;14.60;78.50
12839;DHT22;6486;51.034;5.262;2022-10-31T03:49:24;14.60;77.90
12839;DHT22;6486;51.034;5.262;2022-10-31T03:55:14;14.70;78.10
12839;DHT22;6486;51.034;5.262;2022-10-31T03:57:56;14.70;78.10
12839;DHT22;6486;51.034;5.262;2022-10-31T04:00:23;14.70;78.10
12839;DHT22;6486;51.034;5.262;2022-10-31T04:02:59;14.70;78.20
12839;DHT22;6486;51.034;5.262;2022-10-31T04:05:27;14.70;78.20
12839;DHT22;6486;51.034;5.262;2022-10-31T04:07:54;14.70;78.20
12839;DHT22;6486;51.034;5.262;2022-10-31T04:10:22;14.70;78.40
12839;DHT22;6486;51.034;5.262;2022-10-31T04:12:54;14.80;78.50
12839;DHT22;6486;51.034;5.262;2022-10-31T04:15:22;14.80;78.60
12839;DHT22;6486;51.034;5.262;2022-10-31T04:17:50;14.80;78.60
12839;DHT22;6486;51.034;5.262;2022-10-31T04:20:18;14.80;78.60
12839;DHT22;6486;51.034;5.262;2022-10-31T04:22:44;14.90;78.70
12839;DHT22;6486;51.034;5.262;2022-10-31T04:25:09;14.90;78.70
12839;DHT22;6486;51.034;5.262;2022-10-31T04:27:35;14.90;78.70
12839;DHT22;6486;51.034;5.262;2022-10-31T04:30:01;14.90;78.70
12839;DHT22;6486;51.034;5.262;2022-10-31T04:32:26;14.90;78.70
12839;DHT22;6486;51.034;5.262;2022-10-31T04:34:52;14.90;78.70
12839;DHT22;6486;51.034;5.262;2022-10-31T04:37:17;14.80;78.60
12839;DHT22;6486;51.034;5.262;2022-10-31T04:39:43;14.80;78.70
12839;DHT22;6486;51.034;5.262;2022-10-31T04:42:09;14.80;78.80
12839;DHT22;6486;51.034;5.262;2022-10-31T04:44:34;14.70;78.70
12839;DHT22;6486;51.034;5.262;2022-10-31T04:47:00;14.70;78.70
12839;DHT22;6486;51.034;5.262;2022-10-31T04:49:26;14.60;78.70
12839;DHT22;6486;51.034;5.262;2022-10-31T04:51:51;14.60;78.70
12839;DHT22;6486;51.034;5.262;2022-10-31T04:54:17;14.60;78.70
12839;DHT22;6486;51.034;5.262;2022-10-31T04:56:42;14.60;78.80
12839;DHT22;6486;51.034;5.262;2022-10-31T04:59:08;14.60;78.80
12839;DHT22;6486;51.034;5.262;2022-10-31T05:01:33;14.60;78.80
12839;DHT22;6486;51.034;5.262;2022-10-31T05:03:59;14.60;78.80
12839;DHT22;6486;51.034;5.262;2022-10-31T05:06:25;14.50;78.70
12839;DHT22;6486;51.034;5.262;2022-10-31T05:08:50;14.50;78.80
12839;DHT22;6486;51.034;5.262;2022-10-31T05:11:16;14.50;78.90
12839;DHT22;6486;51.034;5.262;2022-10-31T05:13:42;14.50;78.90
12839;DHT22;6486;51.034;5.262;2022-10-31T05:16:07;14.50;78.90
12839;DHT22;6486;51.034;5.262;2022-10-31T05:18:33;14.50;78.80
12839;DHT22;6486;51.034;5.262;2022-10-31T05:20:58;14.50;78.70
12839;DHT22;6486;51.034;5.262;2022-10-31T05:23:24;14.50;78.60
12839;DHT22;6486;51.034;5.262;2022-10-31T05:25:50;14.40;78.50
12839;DHT22;6486;51.034;5.262;2022-10-31T05:28:15;14.40;78.60
12839;DHT22;6486;51.034;5.262;2022-10-31T05:30:41;14.40;78.70
12839;DHT22;6486;51.034;5.262;2022-10-31T05:33:07;14.40;78.70
12839;DHT22;6486;51.034;5.262;2022-10-31T05:35:33;14.30;78.70
12839;DHT22;6486;51.034;5.262;2022-10-31T05:37:59;14.40;78.80
12839;DHT22;6486;51.034;5.262;2022-10-31T05:40:25;14.30;78.60
12839;DHT22;6486;51.034;5.262;2022-10-31T05:42:52;14.30;78.70
12839;DHT22;6486;51.034;5.262;2022-10-31T05:45:20;14.40;78.70
12839;DHT22;6486;51.034;5.262;2022-10-31T05:47:59;14.30;78.50
12839;DHT22;6486;51.034;5.262;2022-10-31T05:50:27;14.30;79.20
12839;DHT22;6486;51.034;5.262;2022-10-31T05:53:01;14.30;78.50
12839;DHT22;6486;51.034;5.262;2022-10-31T05:55:28;14.30;78.50
12839;DHT22;6486;51.034;5.262;2022-10-31T05:57:55;14.20;78.40
12839;DHT22;6486;51.034;5.262;2022-10-31T06:00:21;14.20;78.50
12839;DHT22;6486;51.034;5.262;2022-10-31T06:02:48;14.20;78.50
12839;DHT22;6486;51.034;5.262;2022-10-31T06:05:14;14.20;78.70
12839;DHT22;6486;51.034;5.262;2022-10-31T06:07:40;14.20;78.70
12839;DHT22;6486;51.034;5.262;2022-10-31T06:10:07;14.20;78.70
12839;DHT22;6486;51.034;5.262;2022-10-31T06:12:34;14.20;78.70
12839;DHT22;6486;51.034;5.262;2022-10-31T06:15:04;14.20;78.60
12839;DHT22;6486;51.034;5.262;2022-10-31T06:17:31;14.20;78.60
12839;DHT22;6486;51.034;5.262;2022-10-31T06:19:56;14.20;78.60
12839;DHT22;6486;51.034;5.262;2022-10-31T06:22:22;14.10;78.60
12839;DHT22;6486;51.034;5.262;2022-10-31T06:24:48;14.10;78.60
12839;DHT22;6486;51.034;5.262;2022-10-31T06:27:13;14.10;78.50
12839;DHT22;6486;51.034;5.262;2022-10-31T06:29:39;14.10;78.60
12839;DHT22;6486;51.034;5.262;2022-10-31T06:32:05;14.10;78.70
12839;DHT22;6486;51.034;5.262;2022-10-31T06:34:30;14.10;78.70
12839;DHT22;6486;51.034;5.262;2022-10-31T06:36:56;14.10;78.70
12839;DHT22;6486;51.034;5.262;2022-10-31T06:39:21;14.10;78.60
12839;DHT22;6486;51.034;5.262;2022-10-31T06:41:48;14.00;78.50
12839;DHT22;6486;51.034;5.262;2022-10-31T06:44:13;14.00;78.40
12839;DHT22;6486;51.034;5.262;2022-10-31T06:46:39;14.00;78.50
12839;DHT22;6486;51.034;5.262;2022-10-31T06:49:05;14.10;78.70
12839;DHT22;6486;51.034;5.262;2022-10-31T06:51:30;14.10;78.60
12839;DHT22;6486;51.034;5.262;2022-10-31T06:53:56;14.00;78.50
12839;DHT22;6486;51.034;5.262;2022-10-31T06:56:21;14.00;78.60
12839;DHT22;6486;51.034;5.262;2022-10-31T06:58:47;14.10;78.70
12839;DHT22;6486;51.034;5.262;2022-10-31T07:01:13;14.10;78.70
12839;DHT22;6486;51.034;5.262;2022-10-31T07:03:38;14.10;78.60
12839;DHT22;6486;51.034;5.262;2022-10-31T07:06:05;14.10;78.70
12839;DHT22;6486;51.034;5.262;2022-10-31T07:08:31;14.10;78.70
12839;DHT22;6486;51.034;5.262;2022-10-31T07:10:57;14.10;78.60
12839;DHT22;6486;51.034;5.262;2022-10-31T07:13:23;14.10;78.50
12839;DHT22;6486;51.034;5.262;2022-10-31T07:16:00;14.10;79.10
12839;DHT22;6486;51.034;5.262;2022-10-31T07:18:26;14.10;78.50
12839;DHT22;6486;51.034;5.262;2022-10-31T07:20:52;14.10;78.40
12839;DHT22;6486;51.034;5.262;2022-10-31T07:23:18;14.10;78.30
12839;DHT22;6486;51.034;5.262;2022-10-31T07:25:44;14.10;78.20
12839;DHT22;6486;51.034;5.262;2022-10-31T07:28:10;14.10;78.20
12839;DHT22;6486;51.034;5.262;2022-10-31T07:30:37;14.10;78.30
12839;DHT22;6486;51.034;5.262;2022-10-31T07:33:03;14.10;78.40
12839;DHT22;6486;51.034;5.262;2022-10-31T07:35:29;14.20;78.60
12839;DHT22;6486;51.034;5.262;2022-10-31T07:37:56;14.20;78.70
12839;DHT22;6486;51.034;5.262;2022-10-31T07:40:23;14.20;78.70
12839;DHT22;6486;51.034;5.262;2022-10-31T07:42:50;14.20;78.70
12839;DHT22;6486;51.034;5.262;2022-10-31T07:45:18;14.30;78.90
12839;DHT22;6486;51.034;5.262;2022-10-31T07:47:51;14.30;78.80
12839;DHT22;6486;51.034;5.262;2022-10-31T07:50:27;14.30;78.80
12839;DHT22;6486;51.034;5.262;2022-10-31T07:53:10;14.30;78.70
12839;DHT22;6486;51.034;5.262;2022-10-31T07:55:36;14.30;78.70
12839;DHT22;6486;51.034;5.262;2022-10-31T07:58:06;14.30;78.70
12839;DHT22;6486;51.034;5.262;2022-10-31T08:00:33;14.30;78.60
12839;DHT22;6486;51.034;5.262;2022-10-31T08:03:04;14.30;78.60
12839;DHT22;6486;51.034;5.262;2022-10-31T08:05:31;14.30;78.60
12839;DHT22;6486;51.034;5.262;2022-10-31T08:07:57;14.30;78.60
12839;DHT22;6486;51.034;5.262;2022-10-31T08:10:24;14.40;78.70
12839;DHT22;6486;51.034;5.262;2022-10-31T08:13:01;14.40;78.70
12839;DHT22;6486;51.034;5.262;2022-10-31T08:15:28;14.40;78.80
12839;DHT22;6486;51.034;5.262;2022-10-31T08:17:54;14.50;78.90
12839;DHT22;6486;51.034;5.262;2022-10-31T08:20:20;14.50;78.90
12839;DHT22;6486;51.034;5.262;2022-10-31T08:22:56;14.60;79.00
12839;DHT22;6486;51.034;5.262;2022-10-31T08:25:23;14.70;79.00
12839;DHT22;6486;51.034;5.262;2022-10-31T08:27:53;14.80;79.00
12839;DHT22;6486;51.034;5.262;2022-10-31T08:30:25;14.90;79.10
12839;DHT22;6486;51.034;5.262;2022-10-31T08:33:05;14.90;79.00
12839;DHT22;6486;51.034;5.262;2022-10-31T08:35:34;15.00;79.10
12839;DHT22;6486;51.034;5.262;2022-10-31T08:38:00;15.10;79.10
12839;DHT22;6486;51.034;5.262;2022-10-31T08:40:28;15.20;79.30
12839;DHT22;6486;51.034;5.262;2022-10-31T08:43:14;15.20;79.40
12839;DHT22;6486;51.034;5.262;2022-10-31T08:45:41;15.30;79.60
12839;DHT22;6486;51.034;5.262;2022-10-31T08:48:10;15.40;79.60
12839;DHT22;6486;51.034;5.262;2022-10-31T08:50:37;15.50;79.70
12839;DHT22;6486;51.034;5.262;2022-10-31T08:53:16;15.50;79.60
12839;DHT22;6486;51.034;5.262;2022-10-31T08:55:43;15.60;79.70
12839;DHT22;6486;51.034;5.262;2022-10-31T08:58:11;15.60;79.60
12839;DHT22;6486;51.034;5.262;2022-10-31T09:00:37;15.70;79.60
12839;DHT22;6486;51.034;5.262;2022-10-31T09:03:09;15.80;79.70
12839;DHT22;6486;51.034;5.262;2022-10-31T09:05:35;15.80;79.60
12839;DHT22;6486;51.034;5.262;2022-10-31T09:08:02;15.90;79.70
12839;DHT22;6486;51.034;5.262;2022-10-31T09:10:29;16.00;80.10
12839;DHT22;6486;51.034;5.262;2022-10-31T09:12:59;16.10;79.80
12839;DHT22;6486;51.034;5.262;2022-10-31T09:15:26;16.10;79.70
12839;DHT22;6486;51.034;5.262;2022-10-31T09:17:52;16.20;79.80
12839;DHT22;6486;51.034;5.262;2022-10-31T09:20:18;16.30;80.50
12839;DHT22;6486;51.034;5.262;2022-10-31T09:22:44;16.30;79.90
12839;DHT22;6486;51.034;5.262;2022-10-31T09:25:10;16.40;79.90
12839;DHT22;6486;51.034;5.262;2022-10-31T09:27:36;16.50;79.80
12839;DHT22;6486;51.034;5.262;2022-10-31T09:30:03;16.50;79.90
12839;DHT22;6486;51.034;5.262;2022-10-31T09:32:28;16.60;79.90
12839;DHT22;6486;51.034;5.262;2022-10-31T09:34:54;16.60;79.90
12839;DHT22;6486;51.034;5.262;2022-10-31T09:37:20;16.60;79.90
12839;DHT22;6486;51.034;5.262;2022-10-31T09:39:46;16.60;79.80
12839;DHT22;6486;51.034;5.262;2022-10-31T09:44:56;16.70;79.90
12839;DHT22;6486;51.034;5.262;2022-10-31T09:52:35;16.80;79.80
12839;DHT22;6486;51.034;5.262;2022-10-31T09:55:31;16.90;80.00
12839;DHT22;6486;51.034;5.262;2022-10-31T09:58:01;16.90;80.20
12839;DHT22;6486;51.034;5.262;2022-10-31T10:00:27;16.90;80.10
12839;DHT22;6486;51.034;5.262;2022-10-31T10:02:57;16.90;80.20
12839;DHT22;6486;51.034;5.262;2022-10-31T10:05:32;17.00;80.30
12839;DHT22;6486;51.034;5.262;2022-10-31T10:08:18;17.00;80.40
12839;DHT22;6486;51.034;5.262;2022-10-31T10:25:03;17.30;80.40
12839;DHT22;6486;51.034;5.262;2022-10-31T10:27:49;17.40;81.20
12839;DHT22;6486;51.034;5.262;2022-10-31T10:33:19;17.40;80.50
12839;DHT22;6486;51.034;5.262;2022-10-31T10:35:59;17.40;80.50
12839;DHT22;6486;51.034;5.262;2022-10-31T10:38:34;17.50;80.60
12839;DHT22;6486;51.034;5.262;2022-10-31T10:41:14;17.50;80.50
12839;DHT22;6486;51.034;5.262;2022-10-31T10:43:41;17.50;80.50
12839;DHT22;6486;51.034;5.262;2022-10-31T10:46:19;17.50;80.50
12839;DHT22;6486;51.034;5.262;2022-10-31T10:49:18;17.60;80.60
12839;DHT22;6486;51.034;5.262;2022-10-31T10:54:49;17.60;80.40
12839;DHT22;6486;51.034;5.262;2022-10-31T11:00:20;17.80;80.40
12839;DHT22;6486;51.034;5.262;2022-10-31T11:02:47;17.90;80.30
12839;DHT22;6486;51.034;5.262;2022-10-31T11:07:53;18.00;80.30
12839;DHT22;6486;51.034;5.262;2022-10-31T11:10:19;18.00;80.20
12839;DHT22;6486;51.034;5.262;2022-10-31T11:13:44;18.00;80.10
12839;DHT22;6486;51.034;5.262;2022-10-31T11:16:03;18.10;80.20
12839;DHT22;6486;51.034;5.262;2022-10-31T11:18:31;18.10;80.00
12839;DHT22;6486;51.034;5.262;2022-10-31T11:21:01;18.20;80.00
12839;DHT22;6486;51.034;5.262;2022-10-31T11:23:28;18.20;79.90
12839;DHT22;6486;51.034;5.262;2022-10-31T11:26:06;18.20;79.80
12839;DHT22;6486;51.034;5.262;2022-10-31T11:28:33;18.40;79.70
12839;DHT22;6486;51.034;5.262;2022-10-31T11:31:08;18.40;79.60
12839;DHT22;6486;51.034;5.262;2022-10-31T11:36:31;18.50;79.40
12839;DHT22;6486;51.034;5.262;2022-10-31T11:38:58;18.50;79.30
12839;DHT22;6486;51.034;5.262;2022-10-31T11:41:36;18.50;79.10
12839;DHT22;6486;51.034;5.262;2022-10-31T11:46:36;18.60;78.70
12839;DHT22;6486;51.034;5.262;2022-10-31T11:49:03;18.70;78.80
12839;DHT22;6486;51.034;5.262;2022-10-31T11:51:34;18.90;78.70
12839;DHT22;6486;51.034;5.262;2022-10-31T11:54:02;19.00;78.50
12839;DHT22;6486;51.034;5.262;2022-10-31T11:56:39;19.20;78.40
12839;DHT22;6486;51.034;5.262;2022-10-31T11:59:14;19.40;78.20
12839;DHT22;6486;51.034;5.262;2022-10-31T12:01:47;19.50;77.90
12839;DHT22;6486;51.034;5.262;2022-10-31T12:04:13;19.50;77.70
12839;DHT22;6486;51.034;5.262;2022-10-31T12:06:43;19.60;77.60
12839;DHT22;6486;51.034;5.262;2022-10-31T12:09:29;19.60;77.50
12839;DHT22;6486;51.034;5.262;2022-10-31T12:17:19;19.70;76.70
12839;DHT22;6486;51.034;5.262;2022-10-31T12:30:58;19.70;75.60
12839;DHT22;6486;51.034;5.262;2022-10-31T12:42:06;19.40;74.90
12839;DHT22;6486;51.034;5.262;2022-10-31T12:44:59;19.40;75.00
12839;DHT22;6486;51.034;5.262;2022-10-31T12:58:35;19.30;74.80
12839;DHT22;6486;51.034;5.262;2022-10-31T13:01:12;19.30;74.90
12839;DHT22;6486;51.034;5.262;2022-10-31T13:04:10;19.30;74.90
12839;DHT22;6486;51.034;5.262;2022-10-31T13:06:46;19.30;74.90
12839;DHT22;6486;51.034;5.262;2022-10-31T13:09:17;19.30;74.90
12839;DHT22;6486;51.034;5.262;2022-10-31T13:11:53;19.30;75.50
12839;DHT22;6486;51.034;5.262;2022-10-31T13:14:49;19.30;74.90
12839;DHT22;6486;51.034;5.262;2022-10-31T13:17:34;19.30;75.00
12839;DHT22;6486;51.034;5.262;2022-10-31T13:22:49;19.30;75.00
12839;DHT22;6486;51.034;5.262;2022-10-31T13:25:25;19.30;75.00
12839;DHT22;6486;51.034;5.262;2022-10-31T13:30:47;19.30;75.10
12839;DHT22;6486;51.034;5.262;2022-10-31T13:33:18;19.40;75.10
12839;DHT22;6486;51.034;5.262;2022-10-31T13:38:57;19.40;75.20
12839;DHT22;6486;51.034;5.262;2022-10-31T13:41:48;19.50;75.30
12839;DHT22;6486;51.034;5.262;2022-10-31T13:44:21;19.50;75.40
12839;DHT22;6486;51.034;5.262;2022-10-31T13:46:50;19.50;75.40
12839;DHT22;6486;51.034;5.262;2022-10-31T13:49:39;19.60;75.40
12839;DHT22;6486;51.034;5.262;2022-10-31T13:54:34;19.70;75.40
12839;DHT22;6486;51.034;5.262;2022-10-31T13:57:00;19.80;75.50
12839;DHT22;6486;51.034;5.262;2022-10-31T13:59:27;19.80;75.40
12839;DHT22;6486;51.034;5.262;2022-10-31T14:01:56;19.90;75.40
12839;DHT22;6486;51.034;5.262;2022-10-31T14:04:24;20.00;75.30
12839;DHT22;6486;51.034;5.262;2022-10-31T14:06:57;20.10;75.30
12839;DHT22;6486;51.034;5.262;2022-10-31T14:09:33;20.20;75.40
12839;DHT22;6486;51.034;5.262;2022-10-31T14:12:07;20.20;75.40
12839;DHT22;6486;51.034;5.262;2022-10-31T14:14:43;20.20;75.10
12839;DHT22;6486;51.034;5.262;2022-10-31T14:17:20;20.20;75.00
12839;DHT22;6486;51.034;5.262;2022-10-31T14:20:22;20.20;75.00
12839;DHT22;6486;51.034;5.262;2022-10-31T14:22:49;20.20;75.00
12839;DHT22;6486;51.034;5.262;2022-10-31T14:25:35;20.20;75.00
12839;DHT22;6486;51.034;5.262;2022-10-31T14:28:05;20.20;75.00
12839;DHT22;6486;51.034;5.262;2022-10-31T14:30:55;20.20;75.10
12839;DHT22;6486;51.034;5.262;2022-10-31T14:33:22;20.30;75.20
12839;DHT22;6486;51.034;5.262;2022-10-31T14:36:11;20.60;75.50
12839;DHT22;6486;51.034;5.262;2022-10-31T14:38:54;21.00;75.70
12839;DHT22;6486;51.034;5.262;2022-10-31T14:50:17;21.70;72.40
12839;DHT22;6486;51.034;5.262;2022-10-31T14:52:48;21.50;71.90
12839;DHT22;6486;51.034;5.262;2022-10-31T14:55:16;21.30;72.20
12839;DHT22;6486;51.034;5.262;2022-10-31T14:57:54;21.10;72.30
12839;DHT22;6486;51.034;5.262;2022-10-31T15:00:22;20.90;72.30
12839;DHT22;6486;51.034;5.262;2022-10-31T15:03:25;20.70;72.50
12839;DHT22;6486;51.034;5.262;2022-10-31T15:05:54;20.50;72.60
12839;DHT22;6486;51.034;5.262;2022-10-31T15:10:55;20.20;73.10
12839;DHT22;6486;51.034;5.262;2022-10-31T15:13:21;20.20;73.30
12839;DHT22;6486;51.034;5.262;2022-10-31T15:15:49;20.10;73.40
12839;DHT22;6486;51.034;5.262;2022-10-31T15:18:17;20.00;73.40
12839;DHT22;6486;51.034;5.262;2022-10-31T15:20:45;19.90;73.60
12839;DHT22;6486;51.034;5.262;2022-10-31T15:23:21;19.90;73.70
12839;DHT22;6486;51.034;5.262;2022-10-31T15:25:48;19.80;73.70
12839;DHT22;6486;51.034;5.262;2022-10-31T15:28:31;19.80;73.80
12839;DHT22;6486;51.034;5.262;2022-10-31T15:30:59;19.70;73.90
12839;DHT22;6486;51.034;5.262;2022-10-31T15:33:28;19.60;73.90
12839;DHT22;6486;51.034;5.262;2022-10-31T15:35:55;19.60;74.00
12839;DHT22;6486;51.034;5.262;2022-10-31T15:38:21;19.50;74.10
12839;DHT22;6486;51.034;5.262;2022-10-31T15:40:59;19.50;74.20
12839;DHT22;6486;51.034;5.262;2022-10-31T15:43:36;19.40;75.00
12839;DHT22;6486;51.034;5.262;2022-10-31T15:46:06;19.30;74.50
12839;DHT22;6486;51.034;5.262;2022-10-31T15:48:32;19.30;74.70
12839;DHT22;6486;51.034;5.262;2022-10-31T15:51:00;19.20;75.50
12839;DHT22;6486;51.034;5.262;2022-10-31T15:53:35;19.10;74.90
12839;DHT22;6486;51.034;5.262;2022-10-31T15:56:05;19.10;75.10
12839;DHT22;6486;51.034;5.262;2022-10-31T15:58:33;19.10;75.20
12839;DHT22;6486;51.034;5.262;2022-10-31T16:01:06;19.00;75.20
12839;DHT22;6486;51.034;5.262;2022-10-31T16:03:43;18.90;75.20
12839;DHT22;6486;51.034;5.262;2022-10-31T16:06:20;18.90;75.30
12839;DHT22;6486;51.034;5.262;2022-10-31T16:08:48;18.90;75.50
12839;DHT22;6486;51.034;5.262;2022-10-31T16:11:35;18.90;76.20
12839;DHT22;6486;51.034;5.262;2022-10-31T16:14:23;18.80;75.60
12839;DHT22;6486;51.034;5.262;2022-10-31T16:16:52;18.80;75.60
12839;DHT22;6486;51.034;5.262;2022-10-31T16:22:01;18.70;75.70
12839;DHT22;6486;51.034;5.262;2022-10-31T16:24:30;18.70;75.90
12839;DHT22;6486;51.034;5.262;2022-10-31T16:27:21;18.60;75.90
12839;DHT22;6486;51.034;5.262;2022-10-31T16:29:51;18.60;76.70
12839;DHT22;6486;51.034;5.262;2022-10-31T16:32:37;18.60;76.10
12839;DHT22;6486;51.034;5.262;2022-10-31T16:35:23;18.50;76.10
12839;DHT22;6486;51.034;5.262;2022-10-31T16:37:50;18.50;76.20
12839;DHT22;6486;51.034;5.262;2022-10-31T16:40:15;18.50;76.30
12839;DHT22;6486;51.034;5.262;2022-10-31T16:42:42;18.40;76.30
12839;DHT22;6486;51.034;5.262;2022-10-31T16:45:21;18.40;76.50
12839;DHT22;6486;51.034;5.262;2022-10-31T16:47:47;18.30;76.50
12839;DHT22;6486;51.034;5.262;2022-10-31T16:50:24;18.30;76.50
12839;DHT22;6486;51.034;5.262;2022-10-31T16:52:51;18.30;76.60
12839;DHT22;6486;51.034;5.262;2022-10-31T16:55:18;18.20;76.60
12839;DHT22;6486;51.034;5.262;2022-10-31T16:57:48;18.20;76.70
12839;DHT22;6486;51.034;5.262;2022-10-31T17:00:17;18.10;76.70
12839;DHT22;6486;51.034;5.262;2022-10-31T17:02:45;18.10;76.70
12839;DHT22;6486;51.034;5.262;2022-10-31T17:05:15;18.10;76.80
12839;DHT22;6486;51.034;5.262;2022-10-31T17:07:42;18.00;77.10
12839;DHT22;6486;51.034;5.262;2022-10-31T17:10:09;18.00;76.80
12839;DHT22;6486;51.034;5.262;2022-10-31T17:12:35;17.90;76.70
12839;DHT22;6486;51.034;5.262;2022-10-31T17:15:02;17.90;76.60
12839;DHT22;6486;51.034;5.262;2022-10-31T17:17:27;17.90;76.60
12839;DHT22;6486;51.034;5.262;2022-10-31T17:19:53;17.90;76.40
12839;DHT22;6486;51.034;5.262;2022-10-31T17:22:18;17.90;76.40
12839;DHT22;6486;51.034;5.262;2022-10-31T17:24:44;17.80;76.10
12839;DHT22;6486;51.034;5.262;2022-10-31T17:27:10;17.80;75.90
12839;DHT22;6486;51.034;5.262;2022-10-31T17:29:36;17.80;75.80
12839;DHT22;6486;51.034;5.262;2022-10-31T17:32:01;17.80;75.60
12839;DHT22;6486;51.034;5.262;2022-10-31T17:34:30;17.80;75.40
12839;DHT22;6486;51.034;5.262;2022-10-31T17:36:55;17.80;75.30
12839;DHT22;6486;51.034;5.262;2022-10-31T17:39:21;17.80;75.00
12839;DHT22;6486;51.034;5.262;2022-10-31T17:41:50;17.80;74.80
12839;DHT22;6486;51.034;5.262;2022-10-31T17:44:17;17.80;74.60
12839;DHT22;6486;51.034;5.262;2022-10-31T17:46:43;17.80;74.50
12839;DHT22;6486;51.034;5.262;2022-10-31T17:49:10;17.80;74.30
12839;DHT22;6486;51.034;5.262;2022-10-31T17:51:37;17.80;74.10
12839;DHT22;6486;51.034;5.262;2022-10-31T17:54:03;17.70;73.80
12839;DHT22;6486;51.034;5.262;2022-10-31T17:56:30;17.70;73.60
12839;DHT22;6486;51.034;5.262;2022-10-31T17:58:56;17.70;73.50
12839;DHT22;6486;51.034;5.262;2022-10-31T18:01:22;17.70;73.30
12839;DHT22;6486;51.034;5.262;2022-10-31T18:03:48;17.70;73.30
12839;DHT22;6486;51.034;5.262;2022-10-31T18:06:14;17.70;73.10
12839;DHT22;6486;51.034;5.262;2022-10-31T18:08:42;17.60;73.00
12839;DHT22;6486;51.034;5.262;2022-10-31T18:11:10;17.60;72.90
12839;DHT22;6486;51.034;5.262;2022-10-31T18:13:37;17.60;72.90
12839;DHT22;6486;51.034;5.262;2022-10-31T18:16:07;17.60;72.80
12839;DHT22;6486;51.034;5.262;2022-10-31T18:18:33;17.60;72.70
12839;DHT22;6486;51.034;5.262;2022-10-31T18:20:58;17.60;72.70